Time;durP1;ratioP1;P1;durP2;ratioP2;P2;SDS_P1;SDS_P2;PMS_P1;PMS_P2;Temp;Humidity;BMP_temperature;BMP_pressure;BME280_temperature;BME280_humidity;BME280_pressure;Samples;Min_cycle;Max_cycle;Signal;HPM_P1;HPM_P2
2022/03/06 00:01:33;;;;;;;89.87;32.03;;;0.30;99.90;;;;;;6116571;23;20223;-92
2022/03/06 00:04:41;;;;;;;95.10;31.80;;;0.30;99.90;;;;;;6148355;23;20170;-93
2022/03/06 00:07:46;;;;;;;88.70;31.13;;;0.30;99.90;;;;;;6148083;23;20173;-92
2022/03/06 00:10:15;;;;;;;89.33;31.37;;;0.20;99.90;;;;;;6121854;23;20212;-92
2022/03/06 00:12:44;;;;;;;84.13;29.77;;;0.20;99.90;;;;;;6120611;23;20176;-91
2022/03/06 00:15:12;;;;;;;100.10;32.40;;;0.10;99.90;;;;;;6122893;23;20642;-92
2022/03/06 00:17:41;;;;;;;102.50;30.70;;;0.10;99.90;;;;;;6127202;23;20170;-92
2022/03/06 00:20:12;;;;;;;97.07;32.23;;;0.00;99.90;;;;;;6126489;23;20258;-92
2022/03/06 00:22:40;;;;;;;93.97;31.10;;;0.00;99.90;;;;;;6127340;23;20166;-93
2022/03/06 00:25:09;;;;;;;91.27;30.27;;;-0.10;99.90;;;;;;6126765;23;20169;-92
2022/03/06 00:27:38;;;;;;;97.53;31.10;;;-0.10;99.90;;;;;;6127120;23;20169;-93
2022/03/06 00:30:08;;;;;;;100.53;31.07;;;-0.10;99.90;;;;;;6150326;23;20605;-91
2022/03/06 00:32:37;;;;;;;108.13;31.20;;;-0.20;99.90;;;;;;6128915;23;20191;-91
2022/03/06 00:35:07;;;;;;;94.70;31.73;;;-0.20;99.90;;;;;;6128493;23;20189;-93
2022/03/06 00:37:37;;;;;;;92.73;31.13;;;-0.30;99.90;;;;;;6127468;23;20166;-93
2022/03/06 00:40:07;;;;;;;98.03;31.50;;;-0.30;99.90;;;;;;6127274;23;20177;-92
2022/03/06 00:42:36;;;;;;;92.87;31.27;;;-0.30;99.90;;;;;;6126255;23;20180;-94
2022/03/06 00:45:05;;;;;;;103.33;30.73;;;-0.40;99.90;;;;;;6127587;23;20180;-93
2022/03/06 00:47:34;;;;;;;95.70;30.93;;;-0.40;99.90;;;;;;6126798;23;20545;-92
2022/03/06 00:50:03;;;;;;;103.57;32.20;;;-0.40;99.90;;;;;;6151649;23;20230;-94
2022/03/06 00:52:31;;;;;;;105.27;31.80;;;-0.40;99.90;;;;;;6127313;23;20166;-93
2022/03/06 00:55:01;;;;;;;96.93;30.87;;;-0.40;99.90;;;;;;6126814;23;20822;-93
2022/03/06 00:57:30;;;;;;;107.23;32.27;;;-0.40;99.90;;;;;;6126446;23;20209;-92
2022/03/06 00:59:58;;;;;;;99.57;32.03;;;-0.40;99.90;;;;;;6127210;23;20177;-92
2022/03/06 01:02:28;;;;;;;96.43;31.17;;;-0.40;99.90;;;;;;6126296;23;20219;-93
2022/03/06 01:04:57;;;;;;;97.97;31.70;;;-0.50;99.90;;;;;;6126875;23;20172;-92
2022/03/06 01:07:25;;;;;;;98.17;30.43;;;-0.50;99.90;;;;;;6127319;23;20173;-92
2022/03/06 01:09:54;;;;;;;92.57;31.57;;;-0.50;99.90;;;;;;6126062;23;20173;-92
2022/03/06 01:12:24;;;;;;;90.10;32.13;;;-0.50;99.90;;;;;;6125445;23;20185;-92
2022/03/06 01:14:52;;;;;;;96.93;30.27;;;-0.50;99.90;;;;;;6126389;23;20486;-93
2022/03/06 01:17:21;;;;;;;107.33;32.03;;;-0.60;99.90;;;;;;6126600;23;20266;-92
2022/03/06 01:19:50;;;;;;;104.27;32.27;;;-0.60;99.90;;;;;;6127547;23;20178;-91
2022/03/06 01:22:18;;;;;;;94.00;30.50;;;-0.60;99.90;;;;;;6127718;23;20180;-92
2022/03/06 01:24:47;;;;;;;101.23;31.43;;;-0.60;99.90;;;;;;6127621;23;20177;-92
2022/03/06 01:27:16;;;;;;;94.20;30.47;;;-0.60;99.90;;;;;;6128224;23;20174;-93
2022/03/06 01:29:46;;;;;;;107.03;33.20;;;-0.60;99.90;;;;;;6127260;23;20181;-92
2022/03/06 01:32:14;;;;;;;102.60;30.50;;;-0.60;99.90;;;;;;6128581;23;20686;-93
2022/03/06 01:34:43;;;;;;;102.40;32.80;;;-0.60;99.90;;;;;;6128090;23;20186;-91
2022/03/06 01:37:12;;;;;;;99.60;31.10;;;-0.70;99.90;;;;;;6258194;22;20249;-92
2022/03/06 01:39:41;;;;;;;95.47;31.40;;;-0.70;99.90;;;;;;6127949;23;20166;-92
2022/03/06 01:42:09;;;;;;;107.67;32.17;;;-0.70;99.90;;;;;;6128563;23;20593;-92
2022/03/06 01:44:38;;;;;;;104.70;31.37;;;-0.70;99.90;;;;;;6127183;23;20190;-92
2022/03/06 01:47:08;;;;;;;96.90;30.93;;;-0.70;99.90;;;;;;6128101;23;20176;-92
2022/03/06 01:49:37;;;;;;;97.20;32.97;;;-0.70;99.90;;;;;;6127761;23;20424;-92
2022/03/06 01:52:06;;;;;;;103.87;31.97;;;-0.80;99.90;;;;;;6127560;23;20498;-91
2022/03/06 01:54:34;;;;;;;105.87;32.87;;;-0.70;99.90;;;;;;6128762;23;20174;-92
2022/03/06 01:57:03;;;;;;;97.77;31.60;;;-0.70;99.90;;;;;;6128743;23;20252;-92
2022/03/06 01:59:32;;;;;;;107.67;32.00;;;-0.70;99.90;;;;;;6128216;23;20172;-91
2022/03/06 02:02:01;;;;;;;95.70;31.60;;;-0.80;99.90;;;;;;6127880;23;20176;-92
2022/03/06 02:04:32;;;;;;;108.93;32.40;;;-0.80;99.90;;;;;;6127876;23;20649;-94
2022/03/06 02:07:00;;;;;;;97.50;32.47;;;-0.80;99.90;;;;;;6127235;23;20490;-92
2022/03/06 02:09:29;;;;;;;110.17;32.70;;;-0.80;99.90;;;;;;6128408;23;20173;-93
2022/03/06 02:14:40;;;;;;;98.97;31.77;;;-0.90;99.90;;;;;;6125337;23;20173;-92
2022/03/06 02:17:09;;;;;;;99.67;31.80;;;-0.90;99.90;;;;;;6127814;23;20601;-93
2022/03/06 02:19:58;;;;;;;102.30;31.37;;;-1.00;99.90;;;;;;6128046;23;20173;-93
2022/03/06 02:22:30;;;;;;;100.20;30.77;;;-1.00;99.90;;;;;;6128582;23;20209;-92
2022/03/06 02:24:59;;;;;;;96.70;31.37;;;-1.00;99.90;;;;;;6127218;23;20192;-93
2022/03/06 02:27:28;;;;;;;102.53;33.10;;;-1.00;99.90;;;;;;6128560;23;20497;-92
2022/03/06 02:29:57;;;;;;;105.27;32.97;;;-1.00;99.90;;;;;;6126613;23;20696;-91
2022/03/06 02:32:25;;;;;;;93.27;30.80;;;-1.00;99.90;;;;;;6127798;23;20169;-94
2022/03/06 02:34:54;;;;;;;89.13;32.80;;;-1.00;99.90;;;;;;6127558;23;20169;-93
2022/03/06 02:37:23;;;;;;;106.77;33.07;;;-1.00;99.90;;;;;;6127046;23;20181;-91
2022/03/06 02:39:52;;;;;;;95.43;31.20;;;-1.00;99.90;;;;;;6127334;23;20173;-93
2022/03/06 02:42:26;;;;;;;96.63;32.47;;;-1.10;99.90;;;;;;6127641;23;20616;-93
2022/03/06 02:44:56;;;;;;;95.70;31.27;;;-1.10;99.90;;;;;;6126726;23;20170;-92
2022/03/06 02:47:24;;;;;;;97.37;31.30;;;-1.10;99.90;;;;;;6256632;22;20184;-93
2022/03/06 02:49:53;;;;;;;102.70;32.53;;;-1.10;99.90;;;;;;6127221;23;20165;-95
2022/03/06 02:52:22;;;;;;;91.00;31.40;;;-1.10;99.90;;;;;;6152636;23;20671;-93
2022/03/06 02:54:52;;;;;;;103.30;33.37;;;-1.10;99.90;;;;;;6126858;23;20656;-92
2022/03/06 02:57:20;;;;;;;98.13;31.60;;;-1.10;99.90;;;;;;6127363;23;20169;-93
2022/03/06 02:59:49;;;;;;;105.40;32.93;;;-1.10;99.90;;;;;;6126068;23;20260;-93
2022/03/06 03:02:17;;;;;;;96.00;32.40;;;-1.10;99.90;;;;;;6128301;23;20176;-92
2022/03/06 03:04:46;;;;;;;99.87;32.10;;;-1.10;99.90;;;;;;6127524;23;20227;-92
2022/03/06 03:07:15;;;;;;;99.07;31.70;;;-1.10;99.90;;;;;;6127587;23;20189;-94
2022/03/06 03:09:44;;;;;;;94.73;32.47;;;-1.10;99.90;;;;;;6126770;23;20170;-92
2022/03/06 03:12:14;;;;;;;93.10;31.73;;;-1.10;99.90;;;;;;6127120;23;20180;-92
2022/03/06 03:14:43;;;;;;;91.93;30.80;;;-1.10;99.90;;;;;;6126999;23;20164;-93
2022/03/06 03:17:12;;;;;;;107.70;32.13;;;-1.10;99.90;;;;;;6127158;23;20663;-93
2022/03/06 03:19:40;;;;;;;95.90;32.23;;;-1.10;99.90;;;;;;6126741;23;20181;-93
2022/03/06 03:22:09;;;;;;;94.97;31.90;;;-1.10;99.90;;;;;;6127573;23;20636;-93
2022/03/06 03:24:38;;;;;;;88.77;31.30;;;-1.10;99.90;;;;;;6126963;23;20195;-93
2022/03/06 03:27:06;;;;;;;90.43;30.50;;;-1.00;99.90;;;;;;6125766;23;20220;-92
2022/03/06 03:29:36;;;;;;;91.53;30.87;;;-1.00;99.90;;;;;;6127786;23;20169;-94
2022/03/06 03:32:06;;;;;;;90.50;30.87;;;-1.10;99.90;;;;;;6127824;23;20249;-92
2022/03/06 03:34:35;;;;;;;79.90;28.17;;;-1.10;99.90;;;;;;6151688;23;20227;-93
2022/03/06 03:37:05;;;;;;;83.07;28.57;;;-1.10;99.90;;;;;;6127903;23;20498;-92
2022/03/06 03:39:33;;;;;;;85.77;29.43;;;-1.20;99.90;;;;;;6126918;23;20272;-93
2022/03/06 03:42:02;;;;;;;76.30;28.77;;;-1.20;99.90;;;;;;6126779;23;20173;-92
2022/03/06 03:44:31;;;;;;;84.90;29.57;;;-1.20;99.90;;;;;;6126655;23;20189;-94
2022/03/06 03:47:01;;;;;;;77.20;28.17;;;-1.30;99.90;;;;;;6126515;23;20186;-93
2022/03/06 03:49:30;;;;;;;77.97;28.27;;;-1.40;99.90;;;;;;6127048;23;20211;-91
2022/03/06 03:51:58;;;;;;;77.27;28.73;;;-1.30;99.90;;;;;;6127288;23;20173;-93
2022/03/06 03:54:27;;;;;;;73.30;27.90;;;-1.30;99.90;;;;;;6254944;22;20169;-93
2022/03/06 03:56:55;;;;;;;81.90;28.50;;;-1.40;99.90;;;;;;6126878;23;20189;-92
2022/03/06 03:59:24;;;;;;;79.60;26.63;;;-1.50;99.90;;;;;;6127674;23;20189;-92
2022/03/06 04:01:52;;;;;;;70.43;26.97;;;-1.50;99.90;;;;;;6127299;23;20193;-94
2022/03/06 04:04:23;;;;;;;72.30;27.33;;;-1.60;99.90;;;;;;6127162;23;20177;-93
2022/03/06 04:06:51;;;;;;;75.53;27.53;;;-1.60;99.90;;;;;;6127527;23;20204;-92
2022/03/06 04:09:20;;;;;;;69.40;26.77;;;-1.70;99.90;;;;;;6126881;23;20616;-93
2022/03/06 04:11:48;;;;;;;74.50;28.23;;;-1.60;99.90;;;;;;6127643;23;20176;-92
2022/03/06 04:14:17;;;;;;;69.50;26.93;;;-1.70;99.90;;;;;;6127402;23;20174;-92
2022/03/06 04:16:46;;;;;;;75.73;26.87;;;-1.70;99.90;;;;;;6126368;23;20724;-92
2022/03/06 04:19:14;;;;;;;79.37;26.97;;;-1.70;99.90;;;;;;6127211;23;20177;-92
2022/03/06 04:21:44;;;;;;;71.80;26.73;;;-1.70;99.90;;;;;;6126496;23;20170;-93
2022/03/06 04:24:13;;;;;;;74.43;26.93;;;-1.70;99.90;;;;;;6126701;23;20176;-93
2022/03/06 04:26:41;;;;;;;73.37;25.80;;;-1.70;99.90;;;;;;6127043;23;20272;-93
2022/03/06 04:29:10;;;;;;;75.97;26.67;;;-1.70;99.90;;;;;;6127711;23;20180;-92
2022/03/06 04:31:39;;;;;;;81.63;28.67;;;-1.70;99.90;;;;;;6127591;23;20173;-92
2022/03/06 04:34:07;;;;;;;73.57;26.97;;;-1.70;99.90;;;;;;6126822;23;20177;-93
2022/03/06 04:36:36;;;;;;;78.67;28.03;;;-1.70;99.90;;;;;;6127825;23;20166;-94
2022/03/06 04:39:06;;;;;;;72.07;26.87;;;-1.80;99.90;;;;;;6127664;23;20169;-92
2022/03/06 04:41:35;;;;;;;69.60;27.20;;;-1.70;99.90;;;;;;6126775;23;20175;-93
2022/03/06 04:44:04;;;;;;;71.43;25.63;;;-1.70;99.90;;;;;;6126596;23;20173;-94
2022/03/06 04:46:33;;;;;;;77.30;27.33;;;-1.70;99.90;;;;;;6126777;23;20189;-92
2022/03/06 04:49:01;;;;;;;70.47;26.30;;;-1.70;99.90;;;;;;6126866;23;20174;-93
2022/03/06 04:51:30;;;;;;;78.03;27.10;;;-1.80;99.90;;;;;;6255811;22;20169;-91
2022/03/06 04:53:59;;;;;;;68.73;26.07;;;-1.80;99.90;;;;;;6128376;23;20170;-92
2022/03/06 04:56:29;;;;;;;74.33;26.53;;;-1.80;99.90;;;;;;6128227;23;20181;-94
2022/03/06 04:58:58;;;;;;;75.77;26.77;;;-1.80;99.90;;;;;;6152979;23;20256;-92
2022/03/06 05:01:27;;;;;;;73.57;26.63;;;-1.80;99.90;;;;;;6126074;23;20166;-94
2022/03/06 05:03:56;;;;;;;70.87;27.23;;;-1.80;99.90;;;;;;6151927;23;20174;-93
2022/03/06 05:06:25;;;;;;;68.83;26.30;;;-1.70;99.90;;;;;;6127468;23;20213;-91
2022/03/06 05:08:54;;;;;;;69.70;25.90;;;-1.80;99.90;;;;;;6128416;23;20184;-92
2022/03/06 05:11:23;;;;;;;72.23;26.87;;;-1.80;99.90;;;;;;6127836;23;20178;-92
2022/03/06 05:13:54;;;;;;;72.00;26.03;;;-1.80;99.90;;;;;;6127974;23;20264;-94
2022/03/06 05:16:22;;;;;;;70.17;25.90;;;-1.80;99.90;;;;;;6128002;23;20436;-91
2022/03/06 05:18:51;;;;;;;73.27;25.40;;;-1.80;99.90;;;;;;6128507;23;20256;-93
2022/03/06 05:21:20;;;;;;;68.53;25.43;;;-1.70;99.90;;;;;;6128185;23;20180;-93
2022/03/06 05:23:49;;;;;;;68.90;26.33;;;-1.70;99.90;;;;;;6128557;23;20170;-93
2022/03/06 05:26:18;;;;;;;67.97;26.33;;;-1.60;99.90;;;;;;6128015;23;20197;-92
2022/03/06 05:28:47;;;;;;;67.87;27.33;;;-1.50;99.90;;;;;;6128097;23;20169;-91
2022/03/06 05:31:18;;;;;;;73.27;27.70;;;-1.50;99.90;;;;;;6128024;23;20223;-93
2022/03/06 05:33:47;;;;;;;71.40;25.73;;;-1.40;99.90;;;;;;6152953;23;20170;-92
2022/03/06 05:36:22;;;;;;;69.40;25.70;;;-1.40;99.90;;;;;;6127114;23;20223;-94
2022/03/06 05:38:51;;;;;;;63.83;25.43;;;-1.40;99.90;;;;;;6257370;22;20169;-93
2022/03/06 05:41:19;;;;;;;65.73;25.27;;;-1.40;99.90;;;;;;6128052;23;20169;-91
2022/03/06 05:43:48;;;;;;;69.10;24.90;;;-1.30;99.90;;;;;;6127859;23;20178;-93
2022/03/06 05:46:19;;;;;;;74.80;25.33;;;-1.30;99.90;;;;;;6152386;23;20639;-91
2022/03/06 05:48:49;;;;;;;55.77;23.97;;;-1.40;99.90;;;;;;6127553;23;20198;-91
2022/03/06 05:51:17;;;;;;;67.83;24.33;;;-1.40;99.90;;;;;;6257779;22;20196;-92
2022/03/06 05:53:46;;;;;;;70.63;24.87;;;-1.50;99.90;;;;;;6128063;23;20173;-93
2022/03/06 05:56:14;;;;;;;63.80;24.77;;;-1.40;99.90;;;;;;6128601;23;20648;-93
2022/03/06 05:58:44;;;;;;;60.83;24.67;;;-1.30;99.90;;;;;;6127467;23;20169;-94
2022/03/06 06:01:13;;;;;;;63.40;24.33;;;-1.40;99.90;;;;;;6127561;23;20174;-93
2022/03/06 06:03:44;;;;;;;57.30;24.53;;;-1.30;99.90;;;;;;6128401;23;20195;-94
2022/03/06 06:06:13;;;;;;;63.13;24.27;;;-1.30;99.90;;;;;;6126883;23;20252;-94
2022/03/06 06:08:41;;;;;;;58.30;24.13;;;-1.30;99.90;;;;;;6127749;23;20267;-92
2022/03/06 06:11:10;;;;;;;59.53;24.33;;;-1.30;99.90;;;;;;6127924;23;20597;-92
2022/03/06 06:13:39;;;;;;;61.67;24.50;;;-1.30;99.90;;;;;;6128231;23;20169;-92
2022/03/06 06:16:07;;;;;;;57.40;23.30;;;-1.30;99.90;;;;;;6127003;23;20202;-91
2022/03/06 06:18:37;;;;;;;59.90;24.33;;;-1.30;99.90;;;;;;6128614;23;20166;-92
2022/03/06 06:21:07;;;;;;;54.33;23.07;;;-1.30;99.90;;;;;;6127280;23;20173;-91
2022/03/06 06:23:36;;;;;;;53.50;22.00;;;-1.40;99.90;;;;;;6127655;23;20161;-91
2022/03/06 06:26:05;;;;;;;52.43;23.07;;;-1.40;99.90;;;;;;6127473;23;20174;-94
2022/03/06 06:28:34;;;;;;;58.50;22.40;;;-1.40;99.90;;;;;;6128255;23;20220;-94
2022/03/06 06:31:03;;;;;;;52.43;23.17;;;-1.30;99.90;;;;;;6127342;23;20624;-92
2022/03/06 06:33:33;;;;;;;59.43;23.07;;;-1.30;99.90;;;;;;6128216;23;20180;-92
2022/03/06 06:36:01;;;;;;;57.07;23.97;;;-1.30;99.90;;;;;;6126893;23;20176;-94
2022/03/06 06:38:32;;;;;;;64.93;25.33;;;-1.30;99.90;;;;;;6127932;23;20166;-91
2022/03/06 06:41:02;;;;;;;64.07;25.90;;;-1.20;99.90;;;;;;6127136;23;20513;-92
2022/03/06 06:43:30;;;;;;;57.23;23.77;;;-1.20;99.90;;;;;;6127305;23;20170;-93
2022/03/06 06:45:59;;;;;;;58.93;24.37;;;-1.20;99.90;;;;;;6127280;23;20225;-92
2022/03/06 06:48:28;;;;;;;62.23;25.03;;;-1.20;99.90;;;;;;6127608;23;20194;-92
2022/03/06 06:50:57;;;;;;;56.63;23.73;;;-1.20;99.90;;;;;;6127915;23;20166;-92
2022/03/06 06:53:25;;;;;;;59.97;25.60;;;-1.10;99.90;;;;;;6127501;23;20166;-94
2022/03/06 06:55:56;;;;;;;53.33;24.70;;;-1.10;99.90;;;;;;6127614;23;20260;-92
2022/03/06 06:58:25;;;;;;;57.77;23.13;;;-1.00;99.90;;;;;;6128156;23;20244;-93
2022/03/06 07:00:54;;;;;;;53.23;22.77;;;-0.90;99.90;;;;;;6128073;23;20409;-93
2022/03/06 07:03:23;;;;;;;53.40;22.97;;;-1.00;99.90;;;;;;6127825;23;20169;-93
2022/03/06 07:05:52;;;;;;;62.13;24.67;;;-0.80;99.90;;;;;;6127663;23;20166;-92
2022/03/06 07:08:21;;;;;;;56.30;24.20;;;-0.70;99.90;;;;;;6127114;23;20200;-94
2022/03/06 07:10:50;;;;;;;59.97;23.60;;;-0.70;99.90;;;;;;6127495;23;20176;-92
2022/03/06 07:13:20;;;;;;;46.67;21.60;;;-0.60;99.90;;;;;;6127795;23;20166;-92
2022/03/06 07:15:49;;;;;;;56.53;23.93;;;-0.60;99.90;;;;;;6127337;23;20229;-92
2022/03/06 07:18:18;;;;;;;63.83;27.20;;;-0.50;99.90;;;;;;6127447;23;20165;-92
2022/03/06 07:20:47;;;;;;;59.03;26.27;;;-0.40;99.90;;;;;;6128155;23;20281;-91
2022/03/06 07:23:16;;;;;;;51.73;23.23;;;-0.30;99.90;;;;;;6127426;23;20220;-92
2022/03/06 07:25:45;;;;;;;51.50;22.10;;;-0.30;99.90;;;;;;6127041;23;20699;-92
2022/03/06 07:28:13;;;;;;;49.40;21.87;;;-0.20;99.90;;;;;;6127346;23;20194;-92
2022/03/06 07:30:43;;;;;;;46.13;22.17;;;-0.20;99.90;;;;;;6128473;23;20248;-93
2022/03/06 07:33:12;;;;;;;47.83;22.97;;;-0.10;99.90;;;;;;6127785;23;20173;-93
2022/03/06 07:35:41;;;;;;;60.30;27.33;;;0.00;99.90;;;;;;6127201;23;20252;-94
2022/03/06 07:38:09;;;;;;;60.70;27.50;;;0.20;99.90;;;;;;6128342;23;20211;-94
2022/03/06 07:40:39;;;;;;;51.20;23.70;;;0.60;99.90;;;;;;6151912;23;20162;-94
2022/03/06 07:43:07;;;;;;;41.87;20.93;;;1.00;99.90;;;;;;6127206;23;20223;-94
2022/03/06 07:45:36;;;;;;;36.23;19.20;;;1.40;99.90;;;;;;6126750;23;20212;-92
2022/03/06 07:48:07;;;;;;;39.70;20.07;;;1.70;99.90;;;;;;6125439;23;20262;-93
2022/03/06 07:50:35;;;;;;;37.50;18.93;;;2.20;99.90;;;;;;6125396;23;20191;-93
2022/03/06 07:53:04;;;;;;;37.23;18.43;;;2.40;99.90;;;;;;6124600;23;20173;-92
2022/03/06 07:55:33;;;;;;;40.93;19.67;;;2.60;99.90;;;;;;6125025;23;20259;-95
2022/03/06 07:58:02;;;;;;;44.30;19.77;;;3.00;99.90;;;;;;6125990;23;20620;-93
2022/03/06 08:00:31;;;;;;;39.47;19.43;;;3.30;99.90;;;;;;6158743;23;20220;-93
2022/03/06 08:03:00;;;;;;;33.30;18.57;;;3.60;99.90;;;;;;6126762;23;20174;-94
2022/03/06 08:05:31;;;;;;;33.30;17.63;;;3.90;99.90;;;;;;6124389;23;20177;-93
2022/03/06 08:08:00;;;;;;;35.00;18.70;;;4.20;99.90;;;;;;6126655;23;20226;-95
2022/03/06 08:10:28;;;;;;;30.23;17.17;;;4.70;99.90;;;;;;6126717;23;20166;-94
2022/03/06 08:12:57;;;;;;;34.10;18.30;;;4.80;99.90;;;;;;6126824;23;20166;-96
2022/03/06 08:15:27;;;;;;;31.20;17.40;;;4.50;99.90;;;;;;6126484;23;20200;-94
2022/03/06 08:17:57;;;;;;;38.00;17.50;;;4.70;99.90;;;;;;6126567;23;20674;-95
2022/03/06 08:20:26;;;;;;;32.50;17.20;;;4.80;99.90;;;;;;6128374;23;20184;-93
2022/03/06 08:22:56;;;;;;;32.63;17.73;;;5.10;99.90;;;;;;6131485;23;20170;-95
2022/03/06 08:25:28;;;;;;;29.83;17.60;;;5.10;99.90;;;;;;6165268;23;20192;-95
2022/03/06 08:28:01;;;;;;;31.87;17.27;;;5.10;99.90;;;;;;6139102;23;20160;-95
2022/03/06 08:30:30;;;;;;;33.40;18.30;;;5.40;99.90;;;;;;6133607;23;20169;-94
2022/03/06 08:32:58;;;;;;;33.00;18.13;;;5.40;99.90;;;;;;6128370;23;20176;-95
2022/03/06 08:35:28;;;;;;;34.50;18.10;;;5.50;99.90;;;;;;6140995;23;20174;-94
2022/03/06 08:37:59;;;;;;;29.00;17.40;;;5.40;99.90;;;;;;6109909;23;20166;-96
2022/03/06 08:40:28;;;;;;;27.80;17.13;;;5.80;99.90;;;;;;6132132;23;20189;-95
2022/03/06 08:42:57;;;;;;;28.93;17.20;;;5.70;99.90;;;;;;6131285;23;20169;-93
2022/03/06 08:45:27;;;;;;;27.43;17.03;;;5.50;99.90;;;;;;6144739;23;20170;-96
2022/03/06 08:48:11;;;;;;;30.90;17.50;;;5.70;99.90;;;;;;6167642;22;20206;-95
2022/03/06 08:54:27;;;;;;;31.70;17.17;;;5.60;99.90;;;;;;6189208;22;20234;-95
2022/03/06 08:56:56;;;;;;;28.17;16.87;;;5.80;99.90;;;;;;6149887;22;20162;-95
2022/03/06 08:59:34;;;;;;;31.40;17.47;;;6.30;99.90;;;;;;6153846;22;20181;-95
2022/03/06 09:02:04;;;;;;;30.40;17.00;;;6.60;99.90;;;;;;6145776;23;20698;-96
2022/03/06 09:04:36;;;;;;;28.10;17.47;;;6.60;99.90;;;;;;6143835;23;20169;-95
2022/03/06 09:07:06;;;;;;;29.57;17.80;;;6.60;99.90;;;;;;6133214;23;20201;-96
2022/03/06 09:09:36;;;;;;;28.03;17.87;;;6.80;99.90;;;;;;6134379;23;20621;-95
2022/03/06 09:12:06;;;;;;;28.17;17.43;;;6.70;99.90;;;;;;6155268;23;20166;-95
2022/03/06 09:14:35;;;;;;;28.50;17.83;;;7.20;99.90;;;;;;6133672;23;20621;-96
2022/03/06 13:56:38;;;;;;;20.80;14.27;;;9.10;99.90;;;;;;5060456;28;20181;-92
2022/03/06 13:59:09;;;;;;;19.03;12.63;;;8.60;99.90;;;;;;5045528;28;20181;-91
2022/03/06 14:01:58;;;;;;;21.07;13.50;;;9.00;99.90;;;;;;5047564;28;20184;-92
2022/03/06 14:05:06;;;;;;;37.87;13.67;;;9.30;99.90;;;;;;5073900;28;20254;-92
2022/03/06 14:07:35;;;;;;;21.73;14.13;;;9.60;99.90;;;;;;5039066;28;20212;-92
2022/03/06 14:10:51;;;;;;;22.33;13.67;;;9.70;99.90;;;;;;5064103;28;20208;-92
2022/03/06 14:14:06;;;;;;;19.13;13.17;;;9.70;99.90;;;;;;5047586;28;20188;-93
2022/03/06 14:16:46;;;;;;;22.30;13.63;;;9.50;99.90;;;;;;5049458;28;20176;-91
2022/03/06 14:19:20;;;;;;;20.60;13.80;;;8.90;99.90;;;;;;5043270;28;20214;-92
2022/03/06 14:22:16;;;;;;;22.93;14.03;;;9.00;99.90;;;;;;5043942;28;20168;-93
2022/03/06 14:24:48;;;;;;;19.27;13.47;;;8.80;99.90;;;;;;5099383;28;20179;-91
2022/03/06 14:27:46;;;;;;;17.13;12.50;;;9.20;99.90;;;;;;5085291;28;20259;-92
2022/03/06 14:30:27;;;;;;;20.57;13.37;;;9.60;99.90;;;;;;5081652;28;20207;-92
